createdAt,value
2018-06-20T00:00:10.774Z,16.70
2018-06-20T00:02:45.095Z,17.17
2018-06-20T00:05:19.405Z,17.03
2018-06-20T00:07:53.751Z,17.63
2018-06-20T00:10:27.996Z,16.43
2018-06-20T00:13:02.419Z,17.40
2018-06-20T00:15:36.690Z,16.63
2018-06-20T00:18:11.027Z,16.13
2018-06-20T00:20:45.456Z,17.67
2018-06-20T00:23:19.782Z,18.10
2018-06-20T00:25:54.206Z,17.10
2018-06-20T00:28:28.427Z,17.20
2018-06-20T00:31:02.627Z,17.80
2018-06-20T00:33:36.963Z,16.03
2018-06-20T00:36:11.289Z,16.97
2018-06-20T00:38:45.614Z,15.97
2018-06-20T00:41:19.905Z,16.47
2018-06-20T00:43:54.162Z,17.70
2018-06-20T00:46:28.466Z,17.27
2018-06-20T00:49:02.698Z,16.50
2018-06-20T00:51:36.890Z,17.97
2018-06-20T00:54:11.112Z,19.37
2018-06-20T00:56:45.283Z,18.30
2018-06-20T00:59:19.671Z,17.27
2018-06-20T01:01:54.015Z,17.37
2018-06-20T01:04:28.362Z,18.70
2018-06-20T01:07:02.636Z,18.77
2018-06-20T01:09:37.077Z,18.10
2018-06-20T01:12:11.417Z,17.87
2018-06-20T01:14:45.598Z,19.53
2018-06-20T01:17:19.804Z,18.80
2018-06-20T01:19:54.070Z,19.33
2018-06-20T01:22:28.355Z,19.27
2018-06-20T01:25:02.801Z,18.57
2018-06-20T01:27:37.088Z,19.90
2018-06-20T01:30:11.306Z,19.03
2018-06-20T01:32:45.487Z,19.33
2018-06-20T01:35:19.690Z,18.67
2018-06-20T01:37:53.970Z,18.57
2018-06-20T01:40:28.271Z,20.00
2018-06-20T01:43:02.680Z,17.67
2018-06-20T01:45:37.314Z,19.47
2018-06-20T01:48:11.486Z,20.73
2018-06-20T01:50:45.721Z,21.03
2018-06-20T01:53:19.970Z,20.03
2018-06-20T01:55:54.305Z,18.77
2018-06-20T01:58:28.627Z,18.83
2018-06-20T02:01:02.870Z,19.63
2018-06-20T02:03:37.158Z,19.60
2018-06-20T02:06:11.364Z,18.50
2018-06-20T02:08:45.689Z,19.80
2018-06-20T02:11:20.043Z,18.33
2018-06-20T02:13:54.509Z,19.17
2018-06-20T02:16:28.827Z,18.77
2018-06-20T02:19:03.024Z,19.43
2018-06-20T02:21:37.226Z,19.57
2018-06-20T02:24:11.458Z,19.57
2018-06-20T02:26:45.694Z,18.37
2018-06-20T02:29:20.040Z,19.07
2018-06-20T02:31:54.292Z,19.17
2018-06-20T02:34:28.600Z,18.73
2018-06-20T02:37:02.725Z,19.03
2018-06-20T02:39:36.959Z,19.00
2018-06-20T02:42:11.224Z,18.57
2018-06-20T02:44:45.547Z,19.07
2018-06-20T02:47:24.100Z,19.23
2018-06-20T02:49:58.551Z,20.03
2018-06-20T02:52:32.755Z,19.87
2018-06-20T02:55:07.123Z,20.83
2018-06-20T02:57:41.355Z,20.43
2018-06-20T03:00:15.676Z,19.57
2018-06-20T03:02:50.050Z,20.33
2018-06-20T03:05:24.270Z,20.83
2018-06-20T03:07:58.537Z,21.13
2018-06-20T03:10:32.731Z,20.27
2018-06-20T03:13:06.995Z,20.00
2018-06-20T03:15:41.237Z,19.77
2018-06-20T03:18:15.503Z,20.87
2018-06-20T03:20:49.746Z,19.30
2018-06-20T03:23:24.047Z,19.63
2018-06-20T03:25:58.318Z,20.77
2018-06-20T03:28:32.675Z,20.23
2018-06-20T03:31:07.101Z,19.10
2018-06-20T03:33:41.434Z,19.87
2018-06-20T03:36:15.838Z,19.23
2018-06-20T03:38:50.203Z,18.83
2018-06-20T03:41:24.499Z,19.77
2018-06-20T03:43:58.790Z,19.67
2018-06-20T03:46:33.429Z,21.00
2018-06-20T03:49:07.711Z,20.57
2018-06-20T03:51:42.127Z,19.90
2018-06-20T03:54:16.507Z,20.43
2018-06-20T03:56:50.743Z,21.30
2018-06-20T03:59:25.018Z,20.50
2018-06-20T04:01:59.543Z,21.00
2018-06-20T04:04:33.755Z,20.77
2018-06-20T04:07:08.056Z,20.13
2018-06-20T04:09:42.340Z,20.63
2018-06-20T04:12:16.718Z,21.57
2018-06-20T04:14:51.071Z,20.30
2018-06-20T04:17:25.374Z,20.93
2018-06-20T04:19:59.529Z,21.73
2018-06-20T04:22:33.876Z,20.90
2018-06-20T04:25:08.075Z,21.50
2018-06-20T04:27:42.407Z,20.20
2018-06-20T04:30:16.650Z,21.13
2018-06-20T04:32:50.984Z,22.30
2018-06-20T04:35:25.403Z,22.23
2018-06-20T04:37:59.791Z,20.97
2018-06-20T04:40:34.202Z,21.73
2018-06-20T04:43:08.454Z,20.33
2018-06-20T04:45:42.665Z,19.93
2018-06-20T04:48:17.134Z,20.00
2018-06-20T04:50:51.334Z,20.13
2018-06-20T04:53:25.623Z,20.57
2018-06-20T04:56:00.053Z,20.27
2018-06-20T04:58:34.299Z,21.67
2018-06-20T05:01:08.736Z,20.60
2018-06-20T05:03:42.922Z,20.90
2018-06-20T05:06:17.335Z,21.33
2018-06-20T05:08:51.563Z,21.50
2018-06-20T05:11:26.002Z,21.33
2018-06-20T05:14:00.262Z,21.40
2018-06-20T05:16:34.600Z,21.17
2018-06-20T05:19:08.714Z,20.63
2018-06-20T05:21:43.239Z,21.13
2018-06-20T05:24:17.508Z,21.23
2018-06-20T05:26:51.696Z,22.57
2018-06-20T05:29:25.995Z,21.27
2018-06-20T05:32:00.390Z,20.37
2018-06-20T05:34:34.641Z,21.90
2018-06-20T05:37:08.778Z,20.33
2018-06-20T05:39:43.042Z,21.97
2018-06-20T05:42:17.487Z,21.13
2018-06-20T05:44:51.714Z,20.67
2018-06-20T05:47:25.903Z,19.93
2018-06-20T05:50:00.151Z,21.53
2018-06-20T05:52:34.618Z,20.60
2018-06-20T05:55:08.877Z,21.40
2018-06-20T05:57:43.309Z,20.70
2018-06-20T06:00:17.487Z,20.53
2018-06-20T06:02:51.830Z,20.07
2018-06-20T06:05:26.131Z,19.70
2018-06-20T06:08:07.303Z,20.60
2018-06-20T06:10:41.710Z,20.10
2018-06-20T06:13:16.128Z,20.53
2018-06-20T06:15:50.362Z,21.10
2018-06-20T06:18:24.717Z,20.97
2018-06-20T06:20:59.131Z,20.70
2018-06-20T06:23:33.455Z,20.33
2018-06-20T06:26:07.719Z,19.17
2018-06-20T06:28:42.036Z,20.17
2018-06-20T06:31:16.387Z,20.37
2018-06-20T06:33:50.739Z,20.03
2018-06-20T06:36:25.022Z,20.07
2018-06-20T06:38:59.535Z,20.47
2018-06-20T06:41:33.822Z,20.03
2018-06-20T06:44:08.042Z,20.43
2018-06-20T06:46:42.309Z,20.03
2018-06-20T06:49:16.618Z,18.80
2018-06-20T06:51:50.890Z,19.83
2018-06-20T06:54:25.345Z,19.60
2018-06-20T06:56:59.739Z,19.47
2018-06-20T06:59:34.101Z,20.70
2018-06-20T07:02:08.271Z,20.13
2018-06-20T07:04:42.487Z,20.37
2018-06-20T07:07:16.791Z,19.93
2018-06-20T07:09:51.081Z,21.43
2018-06-20T07:12:25.502Z,22.80
2018-06-20T07:14:59.857Z,21.50
2018-06-20T07:17:34.311Z,20.67
2018-06-20T07:20:08.731Z,22.00
2018-06-20T07:22:43.078Z,22.57
2018-06-20T07:25:17.251Z,22.17
2018-06-20T07:27:51.482Z,23.20
2018-06-20T07:30:25.761Z,21.90
2018-06-20T07:32:59.750Z,23.00
2018-06-20T07:35:34.081Z,22.37
2018-06-20T07:38:08.187Z,23.27
2018-06-20T07:40:42.546Z,23.83
2018-06-20T07:43:16.707Z,24.23
2018-06-20T07:45:51.117Z,25.00
2018-06-20T07:48:25.322Z,24.07
2018-06-20T07:50:59.618Z,24.20
2018-06-20T07:53:34.071Z,23.20
2018-06-20T07:56:08.382Z,24.47
2018-06-20T07:58:48.194Z,23.17
2018-06-20T08:01:39.354Z,24.77
2018-06-20T08:04:18.911Z,23.53
2018-06-20T08:06:58.433Z,23.57
2018-06-20T08:09:38.156Z,22.50
2018-06-20T08:12:17.787Z,22.73
2018-06-20T08:14:57.394Z,22.07
2018-06-20T08:17:36.950Z,21.67
2018-06-20T08:20:16.734Z,20.87
2018-06-20T08:22:51.197Z,21.80
2018-06-20T08:25:25.483Z,21.03
2018-06-20T08:27:59.796Z,19.77
2018-06-20T08:30:34.103Z,20.97
2018-06-20T08:33:08.469Z,20.27
2018-06-20T08:35:42.778Z,21.27
2018-06-20T08:38:17.049Z,18.43
2018-06-20T08:40:51.451Z,17.40
2018-06-20T08:43:25.898Z,15.17
2018-06-20T08:46:00.246Z,12.77
2018-06-20T08:48:34.406Z,11.13
2018-06-20T08:51:08.602Z,10.53
2018-06-20T08:53:42.938Z,9.93
2018-06-20T08:56:17.361Z,10.43
2018-06-20T08:58:51.606Z,9.97
2018-06-20T09:01:25.845Z,10.70
2018-06-20T09:04:05.567Z,10.37
2018-06-20T09:06:45.394Z,10.50
2018-06-20T09:10:25.351Z,9.73
2018-06-20T09:13:05.116Z,9.97
2018-06-20T09:15:44.789Z,10.17
2018-06-20T09:18:24.710Z,10.37
2018-06-20T09:20:58.865Z,10.43
2018-06-20T09:23:33.055Z,9.07
2018-06-20T09:26:07.362Z,10.40
2018-06-20T09:28:41.519Z,8.87
2018-06-20T09:31:15.865Z,8.90
2018-06-20T09:33:50.060Z,9.30
2018-06-20T09:36:24.321Z,9.13
2018-06-20T09:38:58.850Z,8.40
2018-06-20T09:41:33.099Z,8.40
2018-06-20T09:44:07.382Z,8.60
2018-06-20T09:46:41.726Z,7.67
2018-06-20T09:49:16.093Z,8.43
2018-06-20T09:51:50.459Z,7.67
2018-06-20T09:54:25.170Z,8.13
2018-06-20T09:56:59.300Z,7.53
2018-06-20T09:59:38.959Z,7.40
2018-06-20T10:02:18.490Z,7.90
2018-06-20T10:04:58.239Z,6.90
2018-06-20T10:07:37.772Z,6.13
2018-06-20T10:10:17.290Z,4.93
2018-06-20T10:12:56.851Z,5.73
2018-06-20T10:15:31.002Z,6.10
2018-06-20T10:18:05.213Z,5.67
2018-06-20T10:20:39.258Z,6.03
2018-06-20T10:23:13.438Z,6.60
2018-06-20T10:25:47.702Z,6.27
2018-06-20T10:28:21.874Z,6.03
2018-06-20T10:30:56.054Z,6.03
2018-06-20T10:33:30.183Z,6.87
2018-06-20T10:36:04.646Z,6.73
2018-06-20T10:38:38.970Z,7.00
2018-06-20T10:41:13.270Z,7.57
2018-06-20T10:43:47.754Z,6.90
2018-06-20T10:46:27.543Z,6.67
2018-06-20T10:49:01.972Z,6.43
2018-06-20T10:51:36.314Z,6.17
2018-06-20T10:54:10.719Z,5.63
2018-06-20T10:56:50.399Z,5.60
2018-06-20T10:59:30.001Z,5.63
2018-06-20T11:04:15.642Z,6.03
2018-06-20T11:06:55.380Z,6.60
2018-06-20T11:09:34.936Z,6.80
2018-06-20T11:12:14.778Z,6.33
2018-06-20T11:14:48.923Z,6.23
2018-06-20T11:17:23.098Z,6.40
2018-06-20T11:20:01.511Z,6.07
2018-06-20T11:22:35.714Z,6.87
2018-06-20T11:25:09.886Z,6.67
2018-06-20T11:27:44.103Z,7.37
2018-06-20T11:30:18.552Z,6.70
2018-06-20T11:32:52.863Z,5.83
2018-06-20T11:35:27.058Z,6.93
2018-06-20T11:38:01.362Z,6.60
2018-06-20T11:40:35.574Z,6.20
2018-06-20T11:43:09.828Z,6.80
2018-06-20T11:45:49.570Z,6.57
2018-06-20T11:48:23.886Z,6.30
2018-06-20T11:50:58.214Z,6.90
2018-06-20T11:53:32.611Z,6.13
2018-06-20T11:56:06.762Z,6.77
2018-06-20T11:58:46.494Z,7.13
2018-06-20T12:01:26.272Z,7.40
2018-06-20T12:04:05.956Z,6.97
2018-06-20T12:06:45.678Z,6.47
2018-06-20T12:09:25.366Z,6.70
2018-06-20T12:12:04.967Z,6.83
2018-06-20T12:14:44.448Z,6.33
2018-06-20T12:17:24.022Z,7.57
2018-06-20T12:20:03.478Z,8.07
2018-06-20T12:22:43.072Z,8.87
2018-06-20T12:25:22.658Z,8.70
2018-06-20T12:28:02.491Z,8.47
2018-06-20T12:30:42.074Z,9.37
2018-06-20T12:33:21.602Z,8.77
2018-06-20T12:36:01.108Z,9.60
2018-06-20T12:38:40.742Z,9.17
2018-06-20T12:41:20.338Z,8.90
2018-06-20T12:43:59.998Z,8.90
2018-06-20T12:46:39.495Z,9.83
2018-06-20T12:49:17.545Z,8.53
2018-06-20T12:51:51.743Z,8.67
2018-06-20T12:54:26.272Z,9.10
2018-06-20T12:57:00.406Z,9.50
2018-06-20T12:59:34.724Z,10.13
2018-06-20T13:02:08.902Z,7.60
2018-06-20T13:04:43.220Z,10.53
2018-06-20T13:07:17.758Z,8.93
2018-06-20T13:09:53.704Z,10.07
2018-06-20T13:12:27.915Z,9.97
2018-06-20T13:15:02.237Z,9.37
2018-06-20T13:17:36.564Z,10.77
2018-06-20T13:20:10.863Z,9.10
2018-06-20T13:22:45.104Z,9.90
2018-06-20T13:25:19.393Z,9.63
2018-06-20T13:27:53.795Z,9.10
2018-06-20T13:30:28.150Z,9.27
2018-06-20T13:33:07.765Z,8.90
2018-06-20T13:35:47.277Z,8.90
2018-06-20T13:38:26.802Z,9.17
2018-06-20T13:41:06.648Z,10.20
2018-06-20T13:43:46.211Z,10.93
2018-06-20T13:46:25.952Z,10.10
2018-06-20T13:49:00.292Z,10.83
2018-06-20T13:51:34.530Z,9.73
2018-06-20T13:54:08.971Z,9.50
2018-06-20T13:56:43.263Z,10.77
2018-06-20T13:59:17.522Z,10.03
2018-06-20T14:01:52.136Z,10.10
2018-06-20T14:04:26.422Z,11.70
2018-06-20T14:07:00.630Z,11.30
2018-06-20T14:09:35.027Z,11.63
2018-06-20T14:12:09.407Z,9.37
2018-06-20T14:14:43.662Z,9.13
2018-06-20T14:17:17.930Z,9.03
2018-06-20T14:19:57.495Z,9.13
2018-06-20T14:22:31.626Z,9.20
2018-06-20T14:25:06.042Z,9.63
2018-06-20T14:27:40.452Z,8.90
2018-06-20T14:30:20.247Z,9.07
2018-06-20T14:32:59.953Z,8.03
2018-06-20T14:35:39.560Z,8.80
2018-06-20T14:38:18.883Z,9.30
2018-06-20T14:40:58.658Z,9.57
2018-06-20T14:43:38.439Z,10.00
2018-06-20T14:46:17.209Z,9.63
2018-06-20T14:48:51.367Z,8.27
2018-06-20T14:51:25.803Z,8.13
2018-06-20T14:54:00.048Z,8.37
2018-06-20T14:56:34.351Z,7.00
2018-06-20T14:59:08.626Z,7.57
2018-06-20T15:01:42.883Z,7.70
2018-06-20T15:04:17.182Z,7.13
2018-06-20T15:06:51.663Z,6.27
2018-06-20T15:09:25.850Z,6.37
2018-06-20T15:12:00.343Z,6.53
2018-06-20T15:14:34.618Z,6.47
2018-06-20T15:17:14.591Z,6.43
2018-06-20T15:19:48.720Z,6.20
2018-06-20T15:22:23.195Z,6.20
2018-06-20T15:24:57.503Z,5.83
2018-06-20T15:27:37.312Z,4.70
2018-06-20T15:30:16.906Z,5.47
2018-06-20T15:32:56.494Z,5.73
2018-06-20T15:36:38.294Z,5.80
2018-06-20T15:39:12.679Z,5.17
2018-06-20T15:41:46.985Z,4.80
2018-06-20T15:44:21.174Z,5.30
2018-06-20T15:46:55.518Z,5.27
2018-06-20T15:49:29.795Z,4.80
2018-06-20T15:52:04.178Z,4.90
2018-06-20T15:54:38.483Z,5.17
2018-06-20T15:57:12.982Z,4.97
2018-06-20T15:59:47.162Z,4.90
2018-06-20T16:02:21.448Z,4.70
2018-06-20T16:04:55.725Z,5.20
2018-06-20T16:07:29.926Z,4.40
2018-06-20T16:10:06.292Z,5.40
2018-06-20T16:12:40.627Z,4.60
2018-06-20T16:15:15.637Z,4.73
2018-06-20T16:17:50.005Z,4.70
2018-06-20T16:20:29.785Z,4.97
2018-06-20T16:23:09.390Z,4.33
2018-06-20T16:25:48.883Z,4.97
2018-06-20T16:30:33.335Z,4.70
2018-06-20T16:33:07.579Z,4.10
2018-06-20T16:35:41.810Z,3.80
2018-06-20T16:38:16.178Z,4.70
2018-06-20T16:40:50.329Z,4.30
2018-06-20T16:43:24.638Z,4.07
2018-06-20T16:45:58.783Z,4.20
2018-06-20T16:48:33.150Z,4.13
2018-06-20T16:51:07.410Z,3.90
2018-06-20T16:53:41.878Z,3.77
2018-06-20T16:56:16.310Z,3.73
2018-06-20T16:58:50.599Z,3.60
2018-06-20T17:01:30.278Z,4.17
2018-06-20T17:04:04.415Z,4.37
2018-06-20T17:06:38.701Z,3.73
2018-06-20T17:09:12.818Z,3.60
2018-06-20T17:11:51.458Z,3.67
2018-06-20T17:14:31.007Z,3.07
2018-06-20T17:17:10.523Z,2.87
2018-06-20T17:19:50.224Z,3.33
2018-06-20T17:22:29.706Z,3.00
2018-06-20T17:25:09.247Z,2.80
2018-06-20T17:27:43.570Z,2.80
2018-06-20T17:30:17.966Z,2.90
2018-06-20T17:32:52.391Z,2.93
2018-06-20T17:35:26.786Z,2.30
2018-06-20T17:38:01.131Z,2.57
2018-06-20T17:40:35.345Z,2.50
2018-06-20T17:43:09.550Z,2.47
2018-06-20T17:45:43.692Z,2.00
2018-06-20T17:48:17.874Z,2.40
2018-06-20T17:50:52.000Z,2.20
2018-06-20T17:53:26.371Z,2.57
2018-06-20T17:56:02.412Z,2.80
2018-06-20T17:58:36.866Z,2.43
2018-06-20T18:01:12.274Z,2.40
2018-06-20T18:03:46.646Z,2.47
2018-06-20T18:06:26.334Z,2.80
2018-06-20T18:09:05.950Z,2.40
2018-06-20T18:11:45.642Z,2.43
2018-06-20T18:14:25.214Z,2.40
2018-06-20T18:17:00.145Z,2.60
2018-06-20T18:19:34.310Z,2.43
2018-06-20T18:22:08.626Z,2.67
2018-06-20T18:24:42.903Z,2.73
2018-06-20T18:27:17.254Z,2.40
2018-06-20T18:29:51.594Z,2.60
2018-06-20T18:32:25.819Z,2.63
2018-06-20T18:35:00.125Z,2.70
2018-06-20T18:37:34.439Z,2.80
2018-06-20T18:40:10.087Z,2.43
2018-06-20T18:42:44.548Z,2.70
2018-06-20T18:45:18.808Z,2.30
2018-06-20T18:47:58.607Z,2.60
2018-06-20T18:50:32.806Z,2.47
2018-06-20T18:53:07.196Z,2.60
2018-06-20T18:55:41.594Z,2.80
2018-06-20T18:58:21.510Z,2.93
2018-06-20T19:01:01.250Z,2.50
2018-06-20T19:03:40.879Z,2.63
2018-06-20T19:06:20.461Z,2.60
2018-06-20T19:08:57.503Z,2.77
2018-06-20T19:11:31.779Z,2.60
2018-06-20T19:14:06.179Z,3.10
2018-06-20T19:16:40.539Z,3.73
2018-06-20T19:19:14.832Z,2.60
2018-06-20T19:21:48.984Z,2.73
2018-06-20T19:24:23.202Z,2.77
2018-06-20T19:26:57.760Z,2.80
2018-06-20T19:29:32.079Z,2.70
2018-06-20T19:32:06.458Z,2.83
2018-06-20T19:34:40.758Z,2.70
2018-06-20T19:37:14.983Z,2.83
2018-06-20T19:39:53.166Z,3.00
2018-06-20T19:42:27.443Z,2.70
2018-06-20T19:45:01.658Z,2.83
2018-06-20T19:47:36.098Z,3.00
2018-06-20T19:50:10.350Z,2.80
2018-06-20T19:52:44.659Z,3.23
2018-06-20T19:55:18.827Z,2.57
2018-06-20T19:57:53.166Z,3.17
2018-06-20T20:00:27.544Z,3.20
2018-06-20T20:03:01.847Z,3.33
2018-06-20T20:05:36.247Z,3.20
2018-06-20T20:08:10.622Z,3.50
2018-06-20T20:10:44.928Z,3.17
2018-06-20T20:13:19.278Z,3.10
2018-06-20T20:15:53.583Z,3.17
2018-06-20T20:18:28.032Z,3.47
2018-06-20T20:21:02.266Z,3.87
2018-06-20T20:23:36.602Z,3.80
2018-06-20T20:26:10.891Z,3.63
2018-06-20T20:28:45.171Z,3.60
2018-06-20T20:31:19.835Z,3.70
2018-06-20T20:33:54.261Z,3.33
2018-06-20T20:36:28.468Z,3.33
2018-06-20T20:39:02.957Z,3.53
2018-06-20T20:41:37.231Z,3.57
2018-06-20T20:44:11.574Z,3.47
2018-06-20T20:46:45.930Z,3.60
2018-06-20T20:49:20.412Z,3.97
2018-06-20T20:51:54.619Z,3.13
2018-06-20T20:54:28.923Z,3.47
2018-06-20T20:57:03.232Z,3.70
2018-06-20T20:59:37.541Z,3.60
2018-06-20T21:02:11.721Z,3.90
2018-06-20T21:04:45.883Z,3.47
2018-06-20T21:07:20.117Z,3.50
2018-06-20T21:09:54.567Z,3.73
2018-06-20T21:12:29.015Z,3.43
2018-06-20T21:15:03.392Z,3.00
2018-06-20T21:17:38.506Z,3.03
2018-06-20T21:20:12.821Z,3.40
2018-06-20T21:22:47.013Z,3.50
2018-06-20T21:25:21.375Z,3.30
2018-06-20T21:27:55.679Z,3.77
2018-06-20T21:30:30.042Z,3.90
2018-06-20T21:33:04.290Z,3.30
2018-06-20T21:35:38.643Z,3.43
2018-06-20T21:38:12.851Z,3.00
2018-06-20T21:40:47.022Z,3.27
2018-06-20T21:43:21.302Z,3.30
2018-06-20T21:45:55.563Z,3.43
2018-06-20T21:48:29.859Z,3.97
2018-06-20T21:51:04.099Z,3.67
2018-06-20T21:53:38.446Z,3.63
2018-06-20T21:56:12.774Z,3.67
2018-06-20T21:58:47.199Z,3.80
2018-06-20T22:01:21.436Z,3.60
2018-06-20T22:03:55.821Z,3.37
2018-06-20T22:06:29.975Z,3.70
2018-06-20T22:09:06.324Z,3.60
2018-06-20T22:11:40.636Z,3.93
2018-06-20T22:14:15.012Z,3.80
2018-06-20T22:16:49.387Z,4.23
2018-06-20T22:19:23.793Z,3.97
2018-06-20T22:21:58.016Z,3.43
2018-06-20T22:24:32.331Z,3.63
2018-06-20T22:27:06.607Z,4.30
2018-06-20T22:29:41.003Z,4.03
2018-06-20T22:32:15.381Z,4.03
2018-06-20T22:34:49.659Z,4.00
2018-06-20T22:37:23.790Z,4.10
2018-06-20T22:39:58.215Z,3.90
2018-06-20T22:42:32.706Z,3.70
2018-06-20T22:45:06.933Z,4.07
2018-06-20T22:47:41.234Z,4.23
2018-06-20T22:50:15.506Z,4.10
2018-06-20T22:52:49.837Z,3.73
2018-06-20T22:55:24.138Z,4.90
2018-06-20T22:57:58.542Z,4.13
2018-06-20T23:00:32.736Z,3.80
2018-06-20T23:03:07.203Z,4.10
2018-06-20T23:05:41.556Z,4.13
2018-06-20T23:08:15.712Z,4.10
2018-06-20T23:10:50.115Z,4.83
2018-06-20T23:13:24.438Z,4.30
2018-06-20T23:15:59.055Z,4.80
2018-06-20T23:18:33.274Z,4.43
2018-06-20T23:21:07.643Z,5.10
2018-06-20T23:23:41.975Z,4.57
2018-06-20T23:26:16.315Z,5.47
2018-06-20T23:28:50.549Z,6.23
2018-06-20T23:31:25.064Z,5.50
2018-06-20T23:33:59.251Z,4.80
2018-06-20T23:36:33.607Z,5.60
2018-06-20T23:39:09.099Z,5.30
2018-06-20T23:41:43.543Z,5.07
2018-06-20T23:44:17.742Z,4.83
2018-06-20T23:46:52.080Z,5.50
2018-06-20T23:49:26.495Z,7.60
2018-06-20T23:52:01.050Z,8.10
2018-06-20T23:54:35.211Z,7.97
2018-06-20T23:57:09.432Z,8.20
2018-06-20T23:59:43.711Z,7.90
